createdAt,value
2019-02-04T00:01:52.029Z,5.47
2019-02-04T00:04:22.656Z,7.10
2019-02-04T00:06:53.193Z,5.30
2019-02-04T00:09:24.185Z,6.90
2019-02-04T00:11:55.294Z,7.43
2019-02-04T00:14:26.220Z,7.55
2019-02-04T00:16:57.043Z,7.30
2019-02-04T00:19:28.188Z,7.22
2019-02-04T00:21:59.047Z,10.93
2019-02-04T00:24:30.287Z,9.10
2019-02-04T00:27:01.013Z,7.40
2019-02-04T00:29:31.948Z,6.03
2019-02-04T00:32:02.506Z,6.60
2019-02-04T00:34:33.257Z,6.00
2019-02-04T00:37:04.109Z,7.10
2019-02-04T00:39:35.006Z,9.58
2019-02-04T00:42:05.541Z,6.23
2019-02-04T00:44:36.106Z,7.23
2019-02-04T00:47:06.617Z,5.50
2019-02-04T00:49:38.268Z,6.17
2019-02-04T00:52:10.547Z,6.13
2019-02-04T00:54:41.071Z,7.27
2019-02-04T00:57:11.616Z,6.13
2019-02-04T00:59:42.135Z,6.20
2019-02-04T01:02:13.004Z,7.03
2019-02-04T01:04:43.849Z,5.85
2019-02-04T01:07:14.370Z,5.17
2019-02-04T01:09:45.175Z,10.50
2019-02-04T01:12:15.991Z,6.50
2019-02-04T01:14:46.611Z,5.83
2019-02-04T01:17:19.499Z,6.30
2019-02-04T01:19:51.484Z,8.87
2019-02-04T01:22:22.294Z,7.72
2019-02-04T01:24:53.195Z,5.55
2019-02-04T01:27:23.975Z,7.22
2019-02-04T01:29:56.042Z,5.73
2019-02-04T01:32:26.569Z,7.72
2019-02-04T01:34:57.108Z,7.00
2019-02-04T01:37:28.289Z,7.40
2019-02-04T01:39:59.113Z,7.33
2019-02-04T01:42:29.632Z,7.00
2019-02-04T01:45:00.319Z,4.90
2019-02-04T01:47:31.093Z,8.33
2019-02-04T01:50:01.627Z,6.63
2019-02-04T01:52:32.416Z,6.70
2019-02-04T01:55:03.260Z,5.60
2019-02-04T01:57:34.049Z,6.58
2019-02-04T02:00:07.285Z,5.97
2019-02-04T02:02:38.053Z,7.57
2019-02-04T02:05:08.762Z,6.87
2019-02-04T02:07:39.424Z,10.07
2019-02-04T02:10:12.255Z,7.92
2019-02-04T02:12:42.984Z,8.07
2019-02-04T02:15:13.865Z,7.03
2019-02-04T02:17:44.388Z,9.17
2019-02-04T02:20:18.928Z,6.90
2019-02-04T02:22:49.418Z,7.37
2019-02-04T02:25:20.459Z,10.63
2019-02-04T02:27:51.350Z,8.13
2019-02-04T02:30:31.006Z,6.03
2019-02-04T02:33:01.629Z,6.43
2019-02-04T02:35:32.397Z,8.68
2019-02-04T02:38:03.189Z,11.23
2019-02-04T02:40:36.063Z,7.53
2019-02-04T02:43:07.042Z,8.13
2019-02-04T02:45:37.540Z,9.17
2019-02-04T02:48:08.335Z,6.00
2019-02-04T02:50:40.250Z,8.87
2019-02-04T02:53:11.093Z,8.30
2019-02-04T02:55:42.566Z,10.20
2019-02-04T02:58:13.407Z,9.10
2019-02-04T03:00:44.229Z,7.40
2019-02-04T03:03:14.755Z,7.77
2019-02-04T03:05:46.745Z,8.73
2019-02-04T03:08:18.666Z,7.10
2019-02-04T03:10:49.581Z,6.40
2019-02-04T03:13:20.750Z,8.77
2019-02-04T03:15:51.300Z,7.20
2019-02-04T03:18:22.240Z,8.78
2019-02-04T03:20:53.277Z,7.33
2019-02-04T03:23:23.778Z,6.50
2019-02-04T03:25:54.310Z,9.33
2019-02-04T03:28:24.803Z,7.30
2019-02-04T03:30:56.477Z,7.83
2019-02-04T03:33:27.401Z,7.77
2019-02-04T03:35:58.246Z,7.50
2019-02-04T03:38:28.773Z,8.55
2019-02-04T03:40:59.362Z,6.63
2019-02-04T03:43:30.463Z,8.23
2019-02-04T03:46:01.471Z,10.00
2019-02-04T03:48:32.262Z,10.13
2019-02-04T03:51:02.785Z,7.60
2019-02-04T03:53:33.317Z,8.97
2019-02-04T03:56:04.038Z,9.17
2019-02-04T03:58:35.218Z,7.80
2019-02-04T04:01:05.739Z,10.30
2019-02-04T04:03:36.569Z,8.05
2019-02-04T04:06:07.657Z,10.03
2019-02-04T04:08:38.428Z,7.50
2019-02-04T04:11:09.363Z,6.67
2019-02-04T04:13:39.903Z,10.60
2019-02-04T04:16:10.642Z,8.00
2019-02-04T04:18:41.556Z,8.53
2019-02-04T04:21:12.379Z,9.15
2019-02-04T04:23:42.906Z,7.57
2019-02-04T04:26:13.500Z,10.63
2019-02-04T04:28:44.341Z,9.68
2019-02-04T04:31:14.861Z,8.47
2019-02-04T04:33:45.561Z,8.97
2019-02-04T04:36:16.447Z,6.20
2019-02-04T04:38:48.752Z,11.60
2019-02-04T04:41:19.477Z,10.00
2019-02-04T04:43:50.047Z,7.27
2019-02-04T04:46:20.837Z,9.37
2019-02-04T04:48:51.621Z,6.73
2019-02-04T04:51:22.450Z,7.67
2019-02-04T04:53:53.002Z,10.53
2019-02-04T04:56:23.537Z,9.70
2019-02-04T04:58:54.127Z,8.87
2019-02-04T05:01:24.777Z,8.45
2019-02-04T05:03:55.612Z,9.20
2019-02-04T05:06:26.158Z,8.03
2019-02-04T05:08:56.704Z,8.43
2019-02-04T05:11:27.610Z,9.50
2019-02-04T05:13:58.426Z,11.70
2019-02-04T05:16:29.265Z,11.45
2019-02-04T05:18:59.777Z,8.77
2019-02-04T05:21:30.612Z,7.05
2019-02-04T05:24:01.111Z,10.67
2019-02-04T05:26:31.614Z,8.87
2019-02-04T05:29:03.684Z,9.87
2019-02-04T05:31:34.875Z,9.68
2019-02-04T05:34:05.642Z,9.33
2019-02-04T05:36:36.283Z,10.40
2019-02-04T05:39:09.366Z,8.20
2019-02-04T05:41:42.940Z,9.70
2019-02-04T05:44:12.823Z,11.67
2019-02-04T05:46:43.699Z,9.60
2019-02-04T05:49:14.171Z,8.47
2019-02-04T05:51:44.698Z,11.27
2019-02-04T05:54:15.779Z,8.70
2019-02-04T05:56:46.580Z,9.70
2019-02-04T05:59:18.329Z,9.57
2019-02-04T06:01:48.870Z,9.13
2019-02-04T06:04:19.701Z,9.73
2019-02-04T06:06:50.823Z,8.47
2019-02-04T06:09:21.643Z,9.07
2019-02-04T06:11:52.486Z,11.93
2019-02-04T06:14:23.069Z,7.03
2019-02-04T06:16:53.807Z,9.00
2019-02-04T06:19:26.454Z,9.58
2019-02-04T06:21:57.062Z,10.63
2019-02-04T06:24:29.247Z,11.50
2019-02-04T06:26:59.834Z,10.13
2019-02-04T06:29:30.835Z,6.72
2019-02-04T06:32:01.690Z,10.07
2019-02-04T06:34:33.863Z,6.75
2019-02-04T06:37:04.815Z,11.28
2019-02-04T06:39:35.614Z,11.55
2019-02-04T06:42:07.633Z,8.63
2019-02-04T06:44:38.816Z,10.00
2019-02-04T06:47:09.651Z,10.25
2019-02-04T06:49:41.359Z,11.90
2019-02-04T06:52:11.902Z,10.67
2019-02-04T06:54:42.740Z,13.00
2019-02-04T06:57:13.300Z,12.73
2019-02-04T06:59:43.781Z,10.20
2019-02-04T07:02:14.697Z,8.05
2019-02-04T07:04:45.177Z,10.30
2019-02-04T07:07:15.896Z,9.17
2019-02-04T07:09:46.400Z,9.70
2019-02-04T07:12:18.390Z,12.40
2019-02-04T07:14:48.973Z,11.40
2019-02-04T07:17:19.793Z,11.17
2019-02-04T07:19:50.305Z,14.33
2019-02-04T07:22:21.061Z,10.87
2019-02-04T07:24:51.918Z,11.70
2019-02-04T07:27:22.690Z,8.83
2019-02-04T07:29:53.279Z,20.73
2019-02-04T07:32:23.771Z,10.33
2019-02-04T07:34:54.319Z,12.73
2019-02-04T07:37:25.018Z,13.40
2019-02-04T07:39:55.807Z,13.08
2019-02-04T07:42:26.621Z,13.30
2019-02-04T07:44:57.214Z,11.27
2019-02-04T07:47:27.787Z,11.67
2019-02-04T07:49:58.345Z,9.97
2019-02-04T07:52:29.158Z,17.40
2019-02-04T07:54:59.902Z,15.20
2019-02-04T07:57:30.720Z,12.55
2019-02-04T08:00:01.273Z,19.00
2019-02-04T08:02:31.831Z,11.30
2019-02-04T08:05:02.906Z,12.63
2019-02-04T08:07:33.459Z,13.78
2019-02-04T08:10:04.195Z,12.20
2019-02-04T08:12:35.052Z,12.43
2019-02-04T08:15:09.086Z,12.95
2019-02-04T08:17:40.081Z,13.17
2019-02-04T08:20:11.551Z,12.97
2019-02-04T08:22:42.271Z,11.93
2019-02-04T08:25:14.345Z,12.60
2019-02-04T08:27:45.052Z,12.30
2019-02-04T08:30:21.974Z,12.30
2019-02-04T08:32:52.572Z,13.80
2019-02-04T08:35:23.253Z,16.45
2019-02-04T08:37:54.149Z,13.47
2019-02-04T08:40:25.314Z,10.53
2019-02-04T08:42:56.238Z,11.70
2019-02-04T08:45:27.098Z,12.37
2019-02-04T08:47:57.896Z,17.30
2019-02-04T08:50:30.197Z,12.93
2019-02-04T08:53:01.011Z,13.97
2019-02-04T08:55:31.588Z,13.38
2019-02-04T08:58:02.173Z,12.93
2019-02-04T09:00:34.413Z,13.00
2019-02-04T09:03:04.983Z,15.23
2019-02-04T09:05:35.655Z,13.78
2019-02-04T09:08:06.620Z,11.73
2019-02-04T09:10:37.425Z,13.77
2019-02-04T09:13:08.269Z,13.60
2019-02-04T09:15:39.137Z,13.10
2019-02-04T09:18:10.421Z,15.32
2019-02-04T09:20:42.456Z,12.17
2019-02-04T09:23:14.912Z,15.87
2019-02-04T09:25:47.014Z,13.70
2019-02-04T09:28:18.694Z,13.37
2019-02-04T09:30:49.320Z,12.67
2019-02-04T09:33:20.339Z,16.60
2019-02-04T09:35:51.159Z,19.37
2019-02-04T09:38:21.970Z,12.37
2019-02-04T09:40:52.956Z,11.70
2019-02-04T09:43:23.588Z,11.63
2019-02-04T09:45:54.120Z,14.20
2019-02-04T09:48:25.293Z,12.63
2019-02-04T09:50:59.839Z,12.33
2019-02-04T09:53:30.846Z,13.33
2019-02-04T09:56:02.233Z,17.40
2019-02-04T09:58:33.461Z,14.95
2019-02-04T10:01:04.680Z,12.43
2019-02-04T10:03:35.477Z,14.67
2019-02-04T10:06:06.187Z,14.40
2019-02-04T10:08:38.544Z,12.58
2019-02-04T10:11:09.087Z,14.90
2019-02-04T10:13:39.721Z,14.77
2019-02-04T10:16:11.713Z,13.57
2019-02-04T10:18:42.628Z,13.20
2019-02-04T10:21:13.191Z,13.30
2019-02-04T10:23:43.862Z,12.97
2019-02-04T10:26:14.411Z,10.77
2019-02-04T10:28:45.159Z,15.23
2019-02-04T10:31:15.750Z,13.57
2019-02-04T10:33:48.342Z,12.40
2019-02-04T10:36:19.605Z,13.70
2019-02-04T10:38:50.236Z,13.77
2019-02-04T10:41:21.357Z,9.85
2019-02-04T10:43:52.186Z,12.17
2019-02-04T10:46:23.054Z,10.70
2019-02-04T10:48:53.735Z,10.67
2019-02-04T10:51:24.583Z,9.00
2019-02-04T10:53:55.477Z,8.67
2019-02-04T10:56:26.548Z,12.67
2019-02-04T10:58:57.205Z,7.87
2019-02-04T11:01:28.059Z,8.98
2019-02-04T11:03:58.629Z,7.40
2019-02-04T11:06:29.487Z,10.30
2019-02-04T11:09:00.236Z,9.17
2019-02-04T11:11:31.320Z,3.22
2019-02-04T11:14:02.116Z,5.20
2019-02-04T11:16:32.665Z,5.40
2019-02-04T11:19:03.455Z,5.37
2019-02-04T11:21:34.294Z,5.50
2019-02-04T11:24:05.386Z,6.33
2019-02-04T11:26:35.984Z,5.20
2019-02-04T11:29:07.010Z,5.13
2019-02-04T11:31:37.833Z,4.85
2019-02-04T11:34:09.291Z,4.63
2019-02-04T11:36:39.841Z,4.53
2019-02-04T11:39:11.182Z,4.67
2019-02-04T11:41:42.120Z,3.97
2019-02-04T11:44:12.729Z,5.60
2019-02-04T11:46:43.469Z,4.77
2019-02-04T11:49:14.086Z,3.60
2019-02-04T11:51:44.616Z,4.57
2019-02-04T11:54:15.407Z,2.37
2019-02-04T11:56:46.478Z,2.23
2019-02-04T11:59:17.462Z,5.27
2019-02-04T12:01:48.329Z,4.03
2019-02-04T12:04:19.772Z,3.17
2019-02-04T12:06:50.514Z,4.30
2019-02-04T12:09:22.441Z,2.97
2019-02-04T12:11:55.612Z,3.20
2019-02-04T12:14:25.678Z,3.65
2019-02-04T12:16:59.138Z,2.73
2019-02-04T12:19:28.985Z,2.07
2019-02-04T12:22:02.624Z,3.23
2019-02-04T12:24:31.989Z,3.33
2019-02-04T12:27:02.578Z,2.07
2019-02-04T12:29:33.900Z,2.15
2019-02-04T12:32:06.041Z,2.67
2019-02-04T12:34:36.886Z,2.63
2019-02-04T12:37:07.722Z,2.90
2019-02-04T12:39:38.340Z,2.77
2019-02-04T12:42:09.359Z,4.83
2019-02-04T12:44:41.236Z,4.10
2019-02-04T12:47:12.171Z,4.63
2019-02-04T12:49:42.711Z,4.10
2019-02-04T12:52:13.573Z,4.28
2019-02-04T12:54:44.359Z,4.78
2019-02-04T12:57:15.139Z,4.53
2019-02-04T12:59:45.691Z,4.47
2019-02-04T13:02:16.463Z,2.97
2019-02-04T13:04:47.343Z,6.87
2019-02-04T13:07:19.038Z,4.30
2019-02-04T13:09:49.624Z,4.67
2019-02-04T13:12:20.678Z,4.07
2019-02-04T13:14:51.420Z,4.47
2019-02-04T13:17:22.005Z,4.03
2019-02-04T13:19:52.647Z,3.97
2019-02-04T13:22:23.868Z,3.50
2019-02-04T13:24:54.676Z,5.47
2019-02-04T13:27:28.444Z,3.15
2019-02-04T13:29:59.030Z,7.10
2019-02-04T13:32:30.018Z,5.83
2019-02-04T13:35:00.615Z,4.30
2019-02-04T13:37:32.892Z,3.30
2019-02-04T13:40:03.724Z,6.90
2019-02-04T13:42:34.901Z,3.83
2019-02-04T13:45:08.460Z,5.77
2019-02-04T13:47:39.235Z,4.10
2019-02-04T13:50:10.474Z,4.77
2019-02-04T13:52:41.057Z,4.53
2019-02-04T13:55:15.532Z,5.13
2019-02-04T13:57:46.070Z,6.40
2019-02-04T14:00:17.471Z,4.93
2019-02-04T14:02:58.786Z,4.13
2019-02-04T14:05:21.313Z,8.10
2019-02-04T14:07:51.951Z,4.10
2019-02-04T14:10:27.126Z,5.13
2019-02-04T14:12:57.867Z,5.63
2019-02-04T14:15:28.924Z,6.28
2019-02-04T14:17:59.856Z,4.37
2019-02-04T14:20:50.083Z,7.55
2019-02-04T14:23:20.949Z,4.57
2019-02-04T14:25:52.830Z,3.60
2019-02-04T14:28:31.517Z,4.83
2019-02-04T14:31:11.891Z,4.10
2019-02-04T14:33:42.817Z,4.57
2019-02-04T14:36:14.842Z,10.87
2019-02-04T14:38:45.802Z,5.87
2019-02-04T14:41:16.680Z,4.20
2019-02-04T14:44:00.355Z,5.40
2019-02-04T14:47:32.540Z,6.77
2019-02-04T14:50:46.876Z,6.67
2019-02-04T14:54:15.033Z,5.53
2019-02-04T14:57:17.018Z,4.67
2019-02-04T14:59:58.734Z,3.97
2019-02-04T15:02:49.106Z,5.22
2019-02-04T15:06:16.222Z,4.03
2019-02-04T15:09:36.220Z,5.60
2019-02-04T15:12:23.037Z,3.80
2019-02-04T15:15:41.865Z,4.37
2019-02-04T15:18:55.699Z,3.98
2019-02-04T15:22:41.404Z,4.17
2019-02-04T15:26:39.309Z,6.87
2019-02-04T15:30:03.929Z,3.80
2019-02-04T15:33:27.937Z,3.70
2019-02-04T15:36:51.916Z,4.37
2019-02-04T15:39:59.348Z,4.87
2019-02-04T15:43:51.675Z,5.57
2019-02-04T15:47:02.122Z,3.57
2019-02-04T15:50:33.654Z,4.47
2019-02-04T15:53:04.458Z,5.27
2019-02-04T15:55:35.401Z,4.90
2019-02-04T15:58:06.167Z,3.90
2019-02-04T16:00:37.024Z,4.83
2019-02-04T16:03:07.958Z,3.80
2019-02-04T16:05:39.041Z,7.23
2019-02-04T16:08:10.224Z,7.97
2019-02-04T16:10:41.224Z,5.53
2019-02-04T16:13:11.953Z,4.43
2019-02-04T16:15:43.002Z,6.37
2019-02-04T16:18:14.056Z,9.48
2019-02-04T16:20:44.780Z,4.90
2019-02-04T16:23:15.369Z,7.53
2019-02-04T16:25:45.969Z,7.27
2019-02-04T16:28:16.668Z,8.23
2019-02-04T16:30:47.348Z,6.20
2019-02-04T16:33:18.035Z,7.23
2019-02-04T16:35:48.868Z,5.00
2019-02-04T16:38:20.257Z,5.05
2019-02-04T16:40:51.067Z,7.00
2019-02-04T16:43:22.115Z,5.40
2019-02-04T16:45:52.944Z,7.80
2019-02-04T16:48:23.828Z,7.87
2019-02-04T16:51:10.645Z,8.57
2019-02-04T16:53:26.923Z,8.37
2019-02-04T16:55:57.838Z,5.83
2019-02-04T16:58:28.440Z,9.03
2019-02-04T17:00:59.196Z,8.63
2019-02-04T17:03:30.133Z,9.80
2019-02-04T17:06:00.974Z,8.77
2019-02-04T17:08:32.222Z,6.47
2019-02-04T17:11:02.837Z,6.67
2019-02-04T17:13:33.689Z,7.60
2019-02-04T17:16:04.349Z,9.17
2019-02-04T17:18:35.242Z,9.03
2019-02-04T17:21:06.159Z,7.37
2019-02-04T17:23:37.884Z,9.30
2019-02-04T17:26:08.543Z,8.17
2019-02-04T17:28:39.215Z,10.40
2019-02-04T17:31:10.056Z,9.67
2019-02-04T17:33:40.610Z,9.40
2019-02-04T17:36:11.224Z,9.00
2019-02-04T17:38:42.013Z,7.53
2019-02-04T17:41:12.659Z,9.27
2019-02-04T17:43:43.389Z,6.53
2019-02-04T17:46:14.210Z,7.80
2019-02-04T17:48:45.123Z,6.90
2019-02-04T17:51:17.132Z,7.90
2019-02-04T17:53:48.035Z,7.20
2019-02-04T17:56:19.831Z,7.93
2019-02-04T17:58:50.504Z,6.20
2019-02-04T18:01:21.849Z,7.17
2019-02-04T18:03:52.483Z,7.13
2019-02-04T18:06:23.429Z,8.97
2019-02-04T18:08:57.120Z,7.07
2019-02-04T18:11:28.025Z,8.35
2019-02-04T18:13:59.024Z,7.27
2019-02-04T18:16:29.850Z,6.20
2019-02-04T18:19:00.423Z,7.00
2019-02-04T18:21:31.310Z,6.15
2019-02-04T18:24:02.159Z,7.13
2019-02-04T18:26:32.854Z,5.35
2019-02-04T18:29:03.464Z,7.50
2019-02-04T18:31:34.385Z,8.90
2019-02-04T18:34:06.737Z,5.57
2019-02-04T18:36:37.542Z,6.97
2019-02-04T18:39:11.268Z,9.00
2019-02-04T18:41:42.231Z,6.07
2019-02-04T18:44:14.692Z,6.83
2019-02-04T18:46:45.631Z,5.80
2019-02-04T18:49:16.697Z,6.30
2019-02-04T18:51:48.798Z,6.77
2019-02-04T18:54:20.836Z,6.95
2019-02-04T18:56:51.584Z,6.87
2019-02-04T18:59:22.441Z,9.10
2019-02-04T19:01:53.525Z,9.63
2019-02-04T19:04:24.510Z,6.33
2019-02-04T19:06:55.386Z,7.40
2019-02-04T19:09:26.385Z,7.12
2019-02-04T19:11:57.315Z,8.43
2019-02-04T19:14:28.298Z,7.80
2019-02-04T19:17:00.329Z,8.27
2019-02-04T19:19:30.870Z,8.50
2019-02-04T19:22:01.594Z,10.20
2019-02-04T19:24:32.463Z,8.75
2019-02-04T19:27:05.959Z,9.67
2019-02-04T19:29:41.658Z,8.57
2019-02-04T19:32:13.139Z,7.67
2019-02-04T19:34:44.558Z,10.50
2019-02-04T19:37:24.756Z,8.40
2019-02-04T19:39:58.455Z,8.00
2019-02-04T19:42:40.529Z,9.90
2019-02-04T19:45:18.435Z,10.03
2019-02-04T19:48:47.497Z,10.53
2019-02-04T19:51:32.629Z,11.83
2019-02-04T19:54:04.791Z,10.13
2019-02-04T19:56:48.567Z,9.68
2019-02-04T19:59:35.902Z,14.07
2019-02-04T20:09:09.758Z,10.53
2019-02-04T20:11:40.835Z,8.90
2019-02-04T20:14:11.451Z,10.70
2019-02-04T20:16:42.714Z,11.77
2019-02-04T20:19:13.438Z,9.50
2019-02-04T20:21:45.649Z,9.67
2019-02-04T20:24:16.409Z,11.20
2019-02-04T20:26:47.326Z,9.60
2019-02-04T20:29:18.318Z,11.60
2019-02-04T20:31:48.941Z,9.23
2019-02-04T20:34:20.599Z,10.80
2019-02-04T20:36:51.409Z,10.93
2019-02-04T20:39:22.451Z,11.40
2019-02-04T20:41:53.476Z,11.33
2019-02-04T20:44:24.513Z,13.25
2019-02-04T20:46:55.538Z,11.00
2019-02-04T20:49:26.661Z,9.08
2019-02-04T20:51:57.706Z,10.47
2019-02-04T20:54:28.804Z,9.23
2019-02-04T20:56:59.507Z,11.07
2019-02-04T20:59:30.467Z,11.75
2019-02-04T21:02:01.637Z,11.80
2019-02-04T21:04:32.768Z,12.75
2019-02-04T21:07:03.697Z,12.13
2019-02-04T21:09:34.693Z,12.77
2019-02-04T21:12:05.470Z,12.00
2019-02-04T21:14:36.451Z,10.15
2019-02-04T21:17:07.203Z,8.60
2019-02-04T21:19:39.277Z,13.43
2019-02-04T21:22:10.174Z,13.93
2019-02-04T21:24:40.906Z,13.10
2019-02-04T21:27:13.265Z,10.03
2019-02-04T21:29:46.822Z,13.30
2019-02-04T21:32:17.593Z,12.57
2019-02-04T21:34:48.679Z,11.67
2019-02-04T21:37:20.816Z,13.18
2019-02-04T21:39:51.718Z,13.77
2019-02-04T21:42:22.861Z,11.63
2019-02-04T21:44:53.797Z,15.17
2019-02-04T21:47:24.647Z,22.10
2019-02-04T21:49:55.448Z,22.57
2019-02-04T21:52:26.648Z,20.60
2019-02-04T21:55:08.036Z,18.87
2019-02-04T21:57:31.901Z,18.67
2019-02-04T22:00:05.039Z,18.33
2019-02-04T22:02:36.789Z,17.00
2019-02-04T22:05:10.877Z,13.13
2019-02-04T22:07:41.422Z,15.83
2019-02-04T22:10:16.868Z,12.27
2019-02-04T22:12:47.668Z,12.50
2019-02-04T22:15:18.598Z,10.67
2019-02-04T22:17:51.344Z,14.67
2019-02-04T22:20:23.982Z,17.47
2019-02-04T22:22:54.503Z,15.47
2019-02-04T22:25:25.791Z,14.45
2019-02-04T22:27:56.688Z,16.60
2019-02-04T22:30:29.862Z,14.98
2019-02-04T22:33:01.616Z,14.17
2019-02-04T22:35:34.827Z,13.80
2019-02-04T22:38:05.730Z,16.33
2019-02-04T22:40:36.819Z,15.28
2019-02-04T22:43:08.616Z,14.30
2019-02-04T22:45:39.480Z,13.72
2019-02-04T22:48:10.117Z,16.60
2019-02-04T22:50:41.037Z,17.47
2019-02-04T22:53:11.852Z,14.67
2019-02-04T22:55:42.585Z,16.43
2019-02-04T22:58:13.150Z,13.77
2019-02-04T23:01:42.371Z,16.93
2019-02-04T23:04:13.038Z,17.47
2019-02-04T23:06:43.927Z,14.37
2019-02-04T23:09:14.724Z,19.20
2019-02-04T23:11:45.583Z,13.77
2019-02-04T23:14:16.160Z,19.77
2019-02-04T23:16:46.865Z,19.20
2019-02-04T23:19:17.766Z,15.57
2019-02-04T23:21:48.376Z,15.50
2019-02-04T23:24:20.518Z,22.10
2019-02-04T23:26:51.035Z,16.27
2019-02-04T23:29:21.764Z,16.73
2019-02-04T23:31:52.539Z,17.90
2019-02-04T23:34:23.500Z,16.47
2019-02-04T23:36:54.502Z,15.37
2019-02-04T23:39:26.119Z,21.23
2019-02-04T23:41:58.383Z,18.60
2019-02-04T23:44:30.298Z,17.53
2019-02-04T23:47:00.871Z,18.17
2019-02-04T23:49:31.915Z,14.47
2019-02-04T23:52:02.926Z,20.47
2019-02-04T23:54:33.839Z,14.28
2019-02-04T23:57:04.717Z,17.07
2019-02-04T23:59:35.324Z,14.63
